createdAt,value
2018-11-22T00:00:21.989Z,49.67
2018-11-22T00:03:09.332Z,40.67
2018-11-22T00:05:56.676Z,33.83
2018-11-22T00:11:11.581Z,31.57
2018-11-22T00:13:39.822Z,33.50
2018-11-22T00:16:08.045Z,40.67
2018-11-22T00:18:55.394Z,37.23
2018-11-22T00:21:23.634Z,36.80
2018-11-22T00:23:51.894Z,32.07
2018-11-22T00:26:39.219Z,32.63
2018-11-22T00:31:54.561Z,34.67
2018-11-22T00:34:22.776Z,45.07
2018-11-22T00:36:51.005Z,40.57
2018-11-22T00:39:38.359Z,37.93
2018-11-22T00:42:25.734Z,35.30
2018-11-22T00:44:53.987Z,31.30
2018-11-22T00:47:22.221Z,34.63
2018-11-22T00:49:50.423Z,37.90
2018-11-22T00:52:37.779Z,35.17
2018-11-22T00:55:27.163Z,32.70
2018-11-22T00:57:56.011Z,34.37
2018-11-22T01:00:43.339Z,43.97
2018-11-22T01:03:30.693Z,36.30
2018-11-22T01:05:58.936Z,36.97
2018-11-22T01:08:46.272Z,33.10
2018-11-22T01:11:33.586Z,38.63
2018-11-22T01:14:01.860Z,43.43
2018-11-22T01:16:30.067Z,41.77
2018-11-22T01:18:58.330Z,34.67
2018-11-22T01:21:45.633Z,30.80
2018-11-22T01:27:01.107Z,35.07
2018-11-22T01:29:48.451Z,34.77
2018-11-22T01:32:35.817Z,33.07
2018-11-22T01:37:57.377Z,32.57
2018-11-22T01:40:44.696Z,34.23
2018-11-22T01:43:32.062Z,38.10
2018-11-22T01:48:52.976Z,30.03
2018-11-22T01:51:40.301Z,35.20
2018-11-22T01:54:27.697Z,33.10
2018-11-22T01:59:48.702Z,36.17
2018-11-22T02:02:36.053Z,32.67
2018-11-22T02:05:05.173Z,35.37
2018-11-22T02:07:52.513Z,37.27
2018-11-22T02:10:21.672Z,38.87
2018-11-22T02:13:09.018Z,37.33
2018-11-22T02:15:56.353Z,35.07
2018-11-22T02:21:11.207Z,34.13
2018-11-22T02:23:39.449Z,35.20
2018-11-22T02:26:07.690Z,39.07
2018-11-22T02:28:55.058Z,37.93
2018-11-22T02:31:23.298Z,38.40
2018-11-22T02:33:51.528Z,33.57
2018-11-22T02:36:38.855Z,37.17
2018-11-22T02:41:48.928Z,41.00
2018-11-22T02:44:17.171Z,38.73
2018-11-22T02:46:45.403Z,40.07
2018-11-22T02:49:13.665Z,39.23
2018-11-22T02:51:41.871Z,34.67
2018-11-22T02:54:29.210Z,38.00
2018-11-22T02:57:16.556Z,32.13
2018-11-22T03:02:32.374Z,40.50
2018-11-22T03:05:00.626Z,34.63
2018-11-22T03:07:47.928Z,32.73
2018-11-22T03:10:35.313Z,38.87
2018-11-22T03:15:56.758Z,37.93
2018-11-22T03:18:44.107Z,39.40
2018-11-22T03:21:12.372Z,33.37
2018-11-22T03:23:40.599Z,36.97
2018-11-22T03:26:27.960Z,31.20
2018-11-22T03:31:43.232Z,37.17
2018-11-22T03:34:11.490Z,37.63
2018-11-22T03:36:58.800Z,37.00
2018-11-22T03:39:46.171Z,41.03
2018-11-22T03:42:14.405Z,42.27
2018-11-22T03:44:42.660Z,30.07
2018-11-22T03:47:29.972Z,38.83
2018-11-22T03:49:58.229Z,36.00
2018-11-22T03:52:45.564Z,39.13
2018-11-22T03:55:14.979Z,41.00
2018-11-22T03:57:43.628Z,45.33
2018-11-22T04:00:31.912Z,37.63
2018-11-22T04:03:19.250Z,39.67
2018-11-22T04:05:47.513Z,39.90
2018-11-22T04:08:15.724Z,46.73
2018-11-22T04:10:43.977Z,39.90
2018-11-22T04:13:31.289Z,38.50
2018-11-22T04:15:59.565Z,37.80
2018-11-22T04:18:46.922Z,40.87
2018-11-22T04:24:07.882Z,39.63
2018-11-22T04:26:55.208Z,47.60
2018-11-22T04:32:10.354Z,37.97
2018-11-22T04:34:38.608Z,41.63
2018-11-22T04:37:25.930Z,40.00
2018-11-22T04:39:54.205Z,35.90
2018-11-22T04:42:41.528Z,40.63
2018-11-22T04:47:54.250Z,39.73
2018-11-22T04:50:32.152Z,49.07
2018-11-22T04:53:19.473Z,41.50
2018-11-22T04:58:35.014Z,36.13
2018-11-22T05:01:03.279Z,37.43
2018-11-22T05:11:58.293Z,37.47
2018-11-22T05:14:45.639Z,43.67
2018-11-22T05:17:32.964Z,34.67
2018-11-22T05:20:01.216Z,40.63
2018-11-22T05:22:48.536Z,35.83
2018-11-22T05:25:16.810Z,48.37
2018-11-22T05:27:45.098Z,31.97
2018-11-22T05:30:18.624Z,39.40
2018-11-22T05:32:47.055Z,36.27
2018-11-22T05:35:34.396Z,35.63
2018-11-22T05:38:21.737Z,33.80
2018-11-22T05:40:49.986Z,36.67
2018-11-22T05:43:18.210Z,35.87
2018-11-22T05:45:46.463Z,36.77
2018-11-22T05:48:33.791Z,36.27
2018-11-22T05:51:02.051Z,31.93
2018-11-22T05:53:49.364Z,33.20
2018-11-22T05:59:04.395Z,38.77
2018-11-22T06:01:32.654Z,33.03
2018-11-22T06:04:19.975Z,42.33
2018-11-22T06:06:48.239Z,46.03
2018-11-22T06:09:35.586Z,34.73
2018-11-22T06:14:56.554Z,35.53
2018-11-22T06:17:43.869Z,38.23
2018-11-22T06:20:31.945Z,31.47
2018-11-22T06:25:52.705Z,46.00
2018-11-22T06:28:40.020Z,41.97
2018-11-22T06:31:27.379Z,40.60
2018-11-22T06:36:48.430Z,39.87
2018-11-22T06:39:16.656Z,34.20
2018-11-22T06:42:03.993Z,46.27
2018-11-22T06:44:51.332Z,35.60
2018-11-22T06:47:38.671Z,40.10
2018-11-22T06:52:54.735Z,41.87
2018-11-22T06:55:42.061Z,31.57
2018-11-22T06:58:29.393Z,38.63
2018-11-22T07:00:57.658Z,39.57
2018-11-22T07:03:25.891Z,40.63
2018-11-22T07:05:54.141Z,32.80
2018-11-22T07:08:22.351Z,39.40
2018-11-22T07:10:50.600Z,39.60
2018-11-22T07:13:37.928Z,39.70
2018-11-22T07:16:25.449Z,42.03
2018-11-22T07:21:46.396Z,40.87
2018-11-22T07:24:33.717Z,34.63
2018-11-22T07:27:21.086Z,36.10
2018-11-22T07:32:42.026Z,37.20
2018-11-22T07:35:11.691Z,46.13
2018-11-22T07:37:59.022Z,37.97
2018-11-22T07:40:46.401Z,36.37
2018-11-22T07:43:14.651Z,30.97
2018-11-22T07:45:43.016Z,34.13
2018-11-22T07:48:11.368Z,36.50
2018-11-22T07:50:58.699Z,37.13
2018-11-22T07:56:20.476Z,41.30
2018-11-22T07:59:07.794Z,41.50
2018-11-22T08:01:36.060Z,46.77
2018-11-22T08:04:04.288Z,37.87
2018-11-22T08:06:51.643Z,38.97
2018-11-22T08:12:12.760Z,34.23
2018-11-22T08:15:00.097Z,34.83
2018-11-22T08:17:47.455Z,33.33
2018-11-22T08:23:09.181Z,35.87
2018-11-22T08:25:37.406Z,35.40
2018-11-22T08:28:25.172Z,32.77
2018-11-22T08:31:12.570Z,33.97
2018-11-22T08:36:33.495Z,33.77
2018-11-22T08:39:01.733Z,35.20
2018-11-22T08:41:29.973Z,38.50
2018-11-22T08:44:17.286Z,36.20
2018-11-22T08:46:45.562Z,33.37
2018-11-22T08:49:13.840Z,33.50
2018-11-22T08:51:42.259Z,34.00
2018-11-22T08:54:29.566Z,33.70
2018-11-22T08:56:57.832Z,34.37
2018-11-22T08:59:45.143Z,30.73
2018-11-22T09:02:13.433Z,31.73
2018-11-22T09:05:00.758Z,31.07
2018-11-22T09:12:54.895Z,34.57
2018-11-22T09:15:31.206Z,33.63
2018-11-22T09:17:52.781Z,26.93
2018-11-22T09:20:22.401Z,29.93
2018-11-22T09:22:50.644Z,29.93
2018-11-22T09:25:37.952Z,31.07
2018-11-22T09:28:25.327Z,37.47
2018-11-22T09:36:34.158Z,31.27
2018-11-22T09:39:21.502Z,35.87
2018-11-22T09:41:49.779Z,35.97
2018-11-22T09:44:37.094Z,35.27
2018-11-22T09:47:05.592Z,34.33
2018-11-22T09:49:52.919Z,41.60
2018-11-22T09:55:08.104Z,44.00
2018-11-22T09:57:55.517Z,30.17
2018-11-22T10:00:42.784Z,37.83
2018-11-22T10:05:57.838Z,40.33
2018-11-22T10:08:45.127Z,39.20
2018-11-22T10:11:32.473Z,38.63
2018-11-22T10:16:48.102Z,30.87
2018-11-22T10:19:35.396Z,35.17
2018-11-22T10:22:22.775Z,34.47
2018-11-22T10:24:51.019Z,42.30
2018-11-22T10:27:19.255Z,36.40
2018-11-22T10:29:47.468Z,36.80
2018-11-22T10:32:34.814Z,41.20
2018-11-22T10:35:22.274Z,34.30
2018-11-22T10:40:36.955Z,36.53
2018-11-22T10:43:24.303Z,41.80
2018-11-22T10:46:11.651Z,39.40
2018-11-22T10:51:26.903Z,35.90
2018-11-22T10:53:55.140Z,35.83
2018-11-22T10:56:23.373Z,36.93
2018-11-22T10:59:10.704Z,32.07
2018-11-22T11:01:58.037Z,30.07
2018-11-22T11:04:46.957Z,36.20
2018-11-22T11:07:34.321Z,31.47
2018-11-22T11:10:02.578Z,38.00
2018-11-22T11:12:30.808Z,33.63
2018-11-22T11:14:59.017Z,38.83
2018-11-22T11:17:46.343Z,31.57
2018-11-22T11:20:33.656Z,31.97
2018-11-22T11:23:21.015Z,31.83
2018-11-22T11:28:42.611Z,38.47
2018-11-22T11:31:29.945Z,30.83
2018-11-22T11:34:17.310Z,30.77
2018-11-22T11:36:45.567Z,32.37
2018-11-22T11:39:13.814Z,28.10
2018-11-22T11:42:01.156Z,27.57
2018-11-22T11:44:29.412Z,38.13
2018-11-22T11:46:57.665Z,30.63
2018-11-22T11:49:45.898Z,31.93
2018-11-22T11:55:08.986Z,32.03
2018-11-22T11:57:37.241Z,30.17
2018-11-22T12:00:46.430Z,31.37
2018-11-22T12:06:02.139Z,30.80
2018-11-22T12:08:49.486Z,34.67
2018-11-22T12:11:36.820Z,32.80
2018-11-22T12:16:52.042Z,32.97
2018-11-22T12:19:20.294Z,37.93
2018-11-22T12:22:07.609Z,30.77
2018-11-22T12:24:55.030Z,39.27
2018-11-22T12:27:23.214Z,32.73
2018-11-22T12:30:10.541Z,42.03
2018-11-22T12:32:57.893Z,41.37
2018-11-22T12:38:34.543Z,34.53
2018-11-22T12:41:21.866Z,37.43
2018-11-22T12:43:50.115Z,30.23
2018-11-22T12:46:18.348Z,32.53
2018-11-22T12:49:05.686Z,35.00
2018-11-22T12:51:53.061Z,32.63
2018-11-22T12:57:08.543Z,29.70
2018-11-22T12:59:55.883Z,29.57
2018-11-22T13:02:43.227Z,35.53
2018-11-22T13:07:58.572Z,41.00
2018-11-22T13:10:45.931Z,29.03
2018-11-22T13:13:33.266Z,37.87
2018-11-22T13:18:48.518Z,42.97
2018-11-22T13:21:35.877Z,41.90
2018-11-22T13:24:04.124Z,34.10
2018-11-22T13:26:51.467Z,31.20
2018-11-22T13:32:02.539Z,31.37
2018-11-22T13:34:49.886Z,39.33
2018-11-22T13:37:37.228Z,31.87
2018-11-22T13:42:48.023Z,41.83
2018-11-22T13:45:36.626Z,32.53
2018-11-22T13:48:23.975Z,35.87
2018-11-22T13:53:38.843Z,38.47
2018-11-22T13:56:26.167Z,32.37
2018-11-22T13:59:13.504Z,38.87
2018-11-22T14:04:28.333Z,37.57
2018-11-22T14:06:56.573Z,35.77
2018-11-22T14:09:24.790Z,37.80
2018-11-22T14:11:53.032Z,35.23
2018-11-22T14:14:40.384Z,35.73
2018-11-22T14:17:27.733Z,40.70
2018-11-22T14:22:43.491Z,32.67
2018-11-22T14:25:30.835Z,38.07
2018-11-22T14:28:18.166Z,36.93
2018-11-22T14:33:33.070Z,33.27
2018-11-22T14:36:20.367Z,36.30
2018-11-22T14:38:48.650Z,37.27
2018-11-22T14:41:16.856Z,44.73
2018-11-22T14:44:04.179Z,36.63
2018-11-22T14:49:19.297Z,43.60
2018-11-22T14:52:08.439Z,40.57
2018-11-22T14:54:55.785Z,36.57
2018-11-22T14:57:24.056Z,44.40
2018-11-22T14:59:52.290Z,42.50
2018-11-22T15:02:20.532Z,45.00
2018-11-22T15:04:48.749Z,40.70
2018-11-22T15:07:17.334Z,41.10
2018-11-22T15:10:04.359Z,43.63
2018-11-22T15:12:51.733Z,41.27
2018-11-22T15:18:07.405Z,39.13
2018-11-22T15:21:00.860Z,49.47
2018-11-22T15:26:15.862Z,41.47
2018-11-22T15:29:03.185Z,42.07
2018-11-22T15:31:50.558Z,51.37
2018-11-22T15:34:18.805Z,47.70
2018-11-22T15:36:47.060Z,46.20
2018-11-22T15:39:15.340Z,45.13
2018-11-22T15:44:30.145Z,46.20
2018-11-22T15:47:17.488Z,44.20
2018-11-22T15:49:45.718Z,47.30
2018-11-22T15:52:13.974Z,43.57
2018-11-22T15:55:01.298Z,41.57
2018-11-22T16:03:05.337Z,43.27
2018-11-22T16:05:33.931Z,39.13
2018-11-22T16:08:02.176Z,43.60
2018-11-22T16:10:49.501Z,53.90
2018-11-22T16:13:17.773Z,42.40
2018-11-22T16:16:05.849Z,37.50
2018-11-22T16:21:26.765Z,43.50
2018-11-22T16:24:14.222Z,50.07
2018-11-22T16:27:01.594Z,48.93
2018-11-22T16:29:29.826Z,43.07
2018-11-22T16:31:58.079Z,50.37
2018-11-22T16:34:26.458Z,42.50
2018-11-22T16:37:13.812Z,40.53
2018-11-22T16:40:01.147Z,43.87
2018-11-22T16:45:36.098Z,44.77
2018-11-22T16:48:06.017Z,48.67
2018-11-22T16:50:53.343Z,42.07
2018-11-22T16:56:08.900Z,45.17
2018-11-22T16:58:56.241Z,45.00
2018-11-22T17:01:43.606Z,51.60
2018-11-22T17:04:11.843Z,42.33
2018-11-22T17:06:59.182Z,42.23
2018-11-22T17:09:27.511Z,54.70
2018-11-22T17:12:14.868Z,38.83
2018-11-22T17:17:36.521Z,46.00
2018-11-22T17:20:24.499Z,45.47
2018-11-22T17:23:11.876Z,50.83
2018-11-22T17:28:32.713Z,48.30
2018-11-22T17:31:20.032Z,48.57
2018-11-22T17:33:48.313Z,46.83
2018-11-22T17:36:16.624Z,46.30
2018-11-22T17:39:04.010Z,51.57
2018-11-22T17:44:25.105Z,52.37
2018-11-22T17:46:53.486Z,55.47
2018-11-22T17:49:21.771Z,46.80
2018-11-22T17:51:50.049Z,53.97
2018-11-22T17:54:18.366Z,46.93
2018-11-22T17:57:05.676Z,47.00
2018-11-22T17:59:33.939Z,49.43
2018-11-22T18:02:02.192Z,55.87
2018-11-22T18:04:30.443Z,46.57
2018-11-22T18:07:17.764Z,46.40
2018-11-22T18:09:46.048Z,63.00
2018-11-22T18:12:14.267Z,57.40
2018-11-22T18:15:01.607Z,58.83
2018-11-22T18:17:29.846Z,45.17
2018-11-22T18:19:58.090Z,54.90
2018-11-22T18:22:45.416Z,51.80
2018-11-22T18:28:01.175Z,53.97
2018-11-22T18:30:48.497Z,49.83
2018-11-22T18:33:16.750Z,59.20
2018-11-22T18:35:44.990Z,56.93
2018-11-22T18:38:13.220Z,45.03
2018-11-22T18:41:00.567Z,54.13
2018-11-22T18:43:47.879Z,60.40
2018-11-22T18:49:02.933Z,58.53
2018-11-22T18:51:50.281Z,65.77
2018-11-22T18:54:18.558Z,52.00
2018-11-22T18:57:05.915Z,50.90
2018-11-22T19:02:27.181Z,67.27
2018-11-22T19:05:14.522Z,49.53
2018-11-22T19:07:43.943Z,55.23
2018-11-22T19:10:32.449Z,56.33
2018-11-22T19:15:48.214Z,53.17
2018-11-22T19:18:35.535Z,50.67
2018-11-22T19:21:03.848Z,58.60
2018-11-22T19:23:51.179Z,55.30
2018-11-22T19:29:06.531Z,55.77
2018-11-22T19:31:34.811Z,67.60
2018-11-22T19:34:03.261Z,65.27
2018-11-22T19:36:50.607Z,52.50
2018-11-22T19:39:18.898Z,51.40
2018-11-22T19:42:06.270Z,52.00
2018-11-22T19:47:26.987Z,54.13
2018-11-22T19:50:14.323Z,57.17
2018-11-22T19:53:01.682Z,53.73
2018-11-22T19:58:23.437Z,43.10
2018-11-22T20:00:51.674Z,52.03
2018-11-22T20:03:19.910Z,77.77
2018-11-22T20:06:07.246Z,57.90
2018-11-22T20:08:54.615Z,65.80
2018-11-22T20:14:16.098Z,54.73
2018-11-22T20:17:03.423Z,64.37
2018-11-22T20:19:50.795Z,50.20
2018-11-22T20:25:12.207Z,55.83
2018-11-22T20:27:59.532Z,59.13
2018-11-22T20:30:46.899Z,55.97
2018-11-22T20:33:15.175Z,42.43
2018-11-22T20:35:43.416Z,56.70
2018-11-22T20:38:30.727Z,55.20
2018-11-22T20:40:59.015Z,47.60
2018-11-22T20:43:27.228Z,47.87
2018-11-22T20:46:14.564Z,43.37
2018-11-22T20:51:35.573Z,46.57
2018-11-22T20:54:22.884Z,43.97
2018-11-22T20:56:51.167Z,44.37
2018-11-22T20:59:19.395Z,41.17
2018-11-22T21:02:06.766Z,36.07
2018-11-22T21:07:22.485Z,34.30
2018-11-22T21:10:09.865Z,52.87
2018-11-22T21:12:57.221Z,30.60
2018-11-22T21:18:12.105Z,41.93
2018-11-22T21:20:41.702Z,40.67
2018-11-22T21:23:10.112Z,45.10
2018-11-22T21:25:57.438Z,46.83
2018-11-22T21:28:44.786Z,43.00
2018-11-22T21:31:13.067Z,47.87
2018-11-22T21:34:00.408Z,46.87
2018-11-22T21:36:47.769Z,46.00
2018-11-22T21:39:16.003Z,43.07
2018-11-22T21:41:44.256Z,43.47
2018-11-22T21:44:31.592Z,43.70
2018-11-22T21:47:18.960Z,41.50
2018-11-22T21:49:47.203Z,45.53
2018-11-22T21:52:15.453Z,51.23
2018-11-22T21:54:43.686Z,46.63
2018-11-22T21:57:31.038Z,40.53
2018-11-22T22:00:18.387Z,37.93
2018-11-22T22:05:33.317Z,35.83
2018-11-22T22:08:20.664Z,31.40
2018-11-22T22:10:48.926Z,32.97
2018-11-22T22:13:36.264Z,28.70
2018-11-22T22:18:51.297Z,32.43
2018-11-22T22:21:38.655Z,36.70
2018-11-22T22:24:25.999Z,37.40
2018-11-22T22:29:41.476Z,32.93
2018-11-22T22:32:09.724Z,36.73
2018-11-22T22:34:37.949Z,33.43
2018-11-22T22:37:25.635Z,37.03
2018-11-22T22:39:53.882Z,35.43
2018-11-22T22:42:41.236Z,31.93
2018-11-22T22:48:02.289Z,32.23
2018-11-22T22:50:49.595Z,43.73
2018-11-22T22:53:36.954Z,33.87
2018-11-22T22:58:58.747Z,32.23
2018-11-22T23:01:46.120Z,32.07
2018-11-22T23:04:14.387Z,35.00
2018-11-22T23:07:01.724Z,31.37
2018-11-22T23:09:49.055Z,36.07
2018-11-22T23:17:52.640Z,36.97
2018-11-22T23:20:39.969Z,36.43
2018-11-22T23:23:27.331Z,32.77
2018-11-22T23:28:48.846Z,38.70
2018-11-22T23:31:36.156Z,32.17
2018-11-22T23:34:23.527Z,32.97
2018-11-22T23:39:38.982Z,32.33
2018-11-22T23:42:26.324Z,37.67
2018-11-22T23:44:54.567Z,40.50
2018-11-22T23:47:22.819Z,37.67
2018-11-22T23:49:51.732Z,34.20
2018-11-22T23:52:19.957Z,33.43
2018-11-22T23:54:48.192Z,37.57
2018-11-22T23:57:35.586Z,44.50
